createdAt,value
2023-04-15T00:00:13.114Z,37.11
2023-04-15T00:02:19.909Z,37.31
2023-04-15T00:04:24.530Z,37.41
2023-04-15T00:06:27.894Z,37.30
2023-04-15T00:08:31.237Z,37.46
2023-04-15T00:10:34.230Z,37.73
2023-04-15T00:12:37.367Z,37.39
2023-04-15T00:14:40.299Z,37.54
2023-04-15T00:16:43.161Z,37.07
2023-04-15T00:18:46.131Z,37.73
2023-04-15T00:20:48.919Z,37.52
2023-04-15T00:22:51.611Z,37.38
2023-04-15T00:24:54.488Z,37.54
2023-04-15T00:26:58.344Z,38.01
2023-04-15T00:29:01.290Z,38.18
2023-04-15T00:31:04.610Z,37.73
2023-04-15T00:33:08.221Z,37.90
2023-04-15T00:35:11.096Z,37.96
2023-04-15T00:37:13.928Z,37.64
2023-04-15T00:39:16.672Z,37.50
2023-04-15T00:41:19.588Z,37.77
2023-04-15T00:43:22.355Z,38.00
2023-04-15T00:45:28.439Z,38.12
2023-04-15T00:47:33.965Z,37.61
2023-04-15T00:49:36.727Z,37.97
2023-04-15T00:51:39.929Z,37.90
2023-04-15T00:53:43.950Z,38.24
2023-04-15T00:55:46.849Z,37.47
2023-04-15T00:57:50.177Z,37.48
2023-04-15T00:59:54.119Z,38.00
2023-04-15T01:01:57.700Z,37.97
2023-04-15T01:04:00.697Z,38.25
2023-04-15T01:06:04.372Z,37.96
2023-04-15T01:08:07.793Z,38.33
2023-04-15T01:10:10.796Z,37.74
2023-04-15T01:12:15.653Z,38.59
2023-04-15T01:14:18.467Z,38.60
2023-04-15T01:16:22.523Z,38.47
2023-04-15T01:18:25.595Z,38.10
2023-04-15T01:20:30.090Z,38.41
2023-04-15T01:22:34.720Z,38.42
2023-04-15T01:24:37.848Z,38.78
2023-04-15T01:26:43.041Z,37.93
2023-04-15T01:28:46.869Z,38.51
2023-04-15T01:30:49.555Z,38.31
2023-04-15T01:32:52.719Z,38.63
2023-04-15T01:35:13.979Z,38.23
2023-04-15T01:37:24.111Z,38.44
2023-04-15T01:39:26.783Z,38.51
2023-04-15T01:41:29.604Z,38.50
2023-04-15T01:43:33.491Z,38.76
2023-04-15T01:45:37.808Z,39.25
2023-04-15T01:47:41.781Z,38.54
2023-04-15T01:49:45.864Z,38.98
2023-04-15T01:51:49.847Z,38.39
2023-04-15T01:53:53.987Z,38.73
2023-04-15T01:55:58.051Z,38.99
2023-04-15T01:58:02.011Z,38.31
2023-04-15T02:00:11.828Z,38.39
2023-04-15T02:02:16.581Z,38.32
2023-04-15T02:04:20.695Z,38.46
2023-04-15T02:06:24.724Z,38.52
2023-04-15T02:08:28.947Z,38.00
2023-04-15T02:10:32.942Z,38.77
2023-04-15T02:12:37.004Z,38.04
2023-04-15T02:14:40.942Z,38.92
2023-04-15T02:16:44.905Z,38.18
2023-04-15T02:18:48.932Z,38.31
2023-04-15T02:20:53.388Z,37.76
2023-04-15T02:22:57.448Z,37.82
2023-04-15T02:25:01.500Z,38.48
2023-04-15T02:27:05.419Z,38.26
2023-04-15T02:29:09.308Z,38.18
2023-04-15T02:31:13.401Z,38.49
2023-04-15T02:33:17.716Z,38.32
2023-04-15T02:35:21.717Z,38.53
2023-04-15T02:37:28.066Z,38.26
2023-04-15T02:39:32.077Z,38.62
2023-04-15T02:41:36.864Z,37.85
2023-04-15T02:43:40.873Z,38.65
2023-04-15T02:45:46.400Z,37.99
2023-04-15T02:47:51.055Z,38.49
2023-04-15T02:49:54.947Z,37.88
2023-04-15T02:52:00.253Z,38.01
2023-04-15T02:54:04.385Z,38.03
2023-04-15T02:56:08.617Z,37.82
2023-04-15T02:58:12.584Z,37.56
2023-04-15T03:00:16.643Z,37.36
2023-04-15T03:02:20.792Z,37.25
2023-04-15T03:04:24.842Z,37.17
2023-04-15T03:06:29.726Z,37.48
2023-04-15T03:08:33.760Z,37.45
2023-04-15T03:10:37.772Z,37.44
2023-04-15T03:12:41.681Z,37.04
2023-04-15T03:14:45.752Z,37.04
2023-04-15T03:16:50.849Z,37.21
2023-04-15T03:18:54.887Z,36.87
2023-04-15T03:20:58.816Z,36.52
2023-04-15T03:23:02.847Z,36.31
2023-04-15T03:25:07.232Z,36.73
2023-04-15T03:27:11.134Z,36.84
2023-04-15T03:29:15.065Z,36.61
2023-04-15T03:31:19.236Z,36.29
2023-04-15T03:33:23.220Z,36.38
2023-04-15T03:35:27.229Z,36.56
2023-04-15T03:37:31.363Z,35.87
2023-04-15T03:39:35.948Z,36.41
2023-04-15T03:41:39.879Z,36.55
2023-04-15T03:43:43.850Z,36.09
2023-04-15T03:45:47.831Z,35.52
2023-04-15T03:47:51.957Z,35.83
2023-04-15T03:49:55.959Z,35.66
2023-04-15T03:52:00.206Z,36.07
2023-04-15T03:54:04.326Z,35.83
2023-04-15T03:56:08.386Z,35.69
2023-04-15T03:58:13.158Z,35.70
2023-04-15T04:00:17.247Z,35.05
2023-04-15T04:02:21.333Z,35.31
2023-04-15T04:04:25.424Z,35.09
2023-04-15T04:06:29.492Z,34.86
2023-04-15T04:08:33.616Z,35.17
2023-04-15T04:10:37.618Z,35.05
2023-04-15T04:12:41.679Z,35.27
2023-04-15T04:14:45.924Z,34.91
2023-04-15T04:16:49.813Z,34.88
2023-04-15T04:18:53.804Z,34.97
2023-04-15T04:20:57.838Z,34.79
2023-04-15T04:23:01.756Z,34.29
2023-04-15T04:25:06.627Z,34.18
2023-04-15T04:27:10.975Z,34.46
2023-04-15T04:29:14.941Z,34.59
2023-04-15T04:31:19.416Z,33.89
2023-04-15T04:33:23.377Z,33.91
2023-04-15T04:35:27.711Z,33.81
2023-04-15T04:37:31.749Z,33.98
2023-04-15T04:39:36.172Z,33.88
2023-04-15T04:41:40.113Z,33.98
2023-04-15T04:43:44.112Z,34.28
2023-04-15T04:45:48.037Z,34.04
2023-04-15T04:47:52.030Z,33.66
2023-04-15T04:49:56.136Z,33.89
2023-04-15T04:52:00.706Z,33.37
2023-04-15T04:54:04.699Z,33.27
2023-04-15T04:56:08.720Z,33.33
2023-04-15T04:58:12.802Z,33.79
2023-04-15T05:00:16.833Z,33.80
2023-04-15T05:02:20.937Z,33.61
2023-04-15T05:04:25.054Z,33.00
2023-04-15T05:06:30.849Z,32.45
2023-04-15T05:08:35.273Z,32.06
2023-04-15T05:10:39.262Z,31.95
2023-04-15T05:12:43.397Z,31.18
2023-04-15T05:14:47.447Z,30.72
2023-04-15T05:16:51.372Z,30.78
2023-04-15T05:18:55.382Z,31.24
2023-04-15T05:21:00.000Z,30.35
2023-04-15T05:23:04.289Z,30.05
2023-04-15T05:25:09.286Z,30.06
2023-04-15T05:27:14.059Z,30.28
2023-04-15T05:29:18.092Z,30.23
2023-04-15T05:31:22.234Z,29.83
2023-04-15T05:33:26.720Z,29.68
2023-04-15T05:35:31.227Z,29.07
2023-04-15T05:37:35.764Z,28.78
2023-04-15T05:39:39.708Z,29.20
2023-04-15T05:41:43.562Z,29.42
2023-04-15T05:43:47.454Z,28.82
2023-04-15T05:45:51.541Z,28.68
2023-04-15T05:47:55.502Z,28.36
2023-04-15T05:49:59.640Z,28.08
2023-04-15T05:52:03.845Z,28.16
2023-04-15T05:54:08.046Z,27.29
2023-04-15T05:56:12.256Z,27.68
2023-04-15T05:58:16.395Z,27.84
2023-04-15T06:00:20.350Z,27.63
2023-04-15T06:02:24.405Z,27.74
2023-04-15T06:04:28.768Z,27.75
2023-04-15T06:06:32.851Z,27.69
2023-04-15T06:08:36.873Z,27.78
2023-04-15T06:10:40.906Z,27.76
2023-04-15T06:12:44.907Z,27.95
2023-04-15T06:14:48.833Z,27.21
2023-04-15T06:16:52.874Z,27.03
2023-04-15T06:18:56.747Z,26.13
2023-04-15T06:21:01.174Z,26.63
2023-04-15T06:23:05.075Z,27.26
2023-04-15T06:25:09.521Z,27.29
2023-04-15T06:27:13.501Z,26.87
2023-04-15T06:29:17.408Z,26.58
2023-04-15T06:31:21.595Z,26.53
2023-04-15T06:33:25.750Z,26.61
2023-04-15T06:35:29.593Z,26.87
2023-04-15T06:37:33.538Z,26.37
2023-04-15T06:39:37.955Z,26.59
2023-04-15T06:41:41.932Z,27.04
2023-04-15T06:43:45.979Z,26.32
2023-04-15T06:45:50.017Z,26.46
2023-04-15T06:47:54.036Z,27.05
2023-04-15T06:49:58.068Z,26.23
2023-04-15T06:52:02.526Z,26.41
2023-04-15T06:54:06.481Z,25.85
2023-04-15T06:56:11.195Z,26.00
2023-04-15T06:58:15.050Z,24.95
2023-04-15T07:00:19.583Z,25.00
2023-04-15T07:02:23.888Z,25.44
2023-04-15T07:04:30.780Z,24.98
2023-04-15T07:06:35.820Z,24.55
2023-04-15T07:08:39.658Z,25.36
2023-04-15T07:10:43.485Z,25.14
2023-04-15T07:12:49.157Z,24.77
2023-04-15T07:14:53.040Z,24.50
2023-04-15T07:16:57.790Z,24.30
2023-04-15T07:19:01.952Z,24.03
2023-04-15T07:21:06.142Z,24.80
2023-04-15T07:23:10.025Z,24.74
2023-04-15T07:25:13.940Z,25.08
2023-04-15T07:27:18.237Z,24.06
2023-04-15T07:29:22.424Z,23.46
2023-04-15T07:31:26.453Z,24.51
2023-04-15T07:33:30.433Z,24.96
2023-04-15T07:35:34.445Z,25.30
2023-04-15T07:37:38.306Z,25.22
2023-04-15T07:39:43.092Z,24.24
2023-04-15T07:41:47.038Z,23.44
2023-04-15T07:43:50.914Z,24.13
2023-04-15T07:45:55.629Z,23.30
2023-04-15T07:47:59.640Z,23.11
2023-04-15T07:50:03.725Z,23.56
2023-04-15T07:52:07.651Z,23.99
2023-04-15T07:54:11.526Z,24.03
2023-04-15T07:56:15.519Z,23.52
2023-04-15T07:58:19.526Z,22.95
2023-04-15T08:00:23.873Z,23.34
2023-04-15T08:02:28.073Z,23.59
2023-04-15T08:04:32.667Z,23.58
2023-04-15T08:06:40.101Z,24.62
2023-04-15T08:08:44.248Z,23.54
2023-04-15T08:10:49.275Z,23.41
2023-04-15T08:12:55.141Z,22.90
2023-04-15T08:14:59.493Z,23.30
2023-04-15T08:17:04.433Z,23.33
2023-04-15T08:19:08.367Z,23.21
2023-04-15T08:21:12.354Z,22.98
2023-04-15T08:23:16.279Z,23.20
2023-04-15T08:25:20.438Z,23.76
2023-04-15T08:27:24.353Z,23.69
2023-04-15T08:29:28.684Z,23.24
2023-04-15T08:31:32.712Z,23.11
2023-04-15T08:33:37.386Z,23.44
2023-04-15T08:35:41.649Z,23.46
2023-04-15T08:37:45.602Z,23.55
2023-04-15T08:39:49.400Z,22.65
2023-04-15T08:41:58.950Z,23.11
2023-04-15T08:44:05.446Z,23.55
2023-04-15T08:46:11.925Z,23.28
2023-04-15T08:48:19.188Z,22.53
2023-04-15T08:50:24.283Z,21.75
2023-04-15T08:52:31.485Z,21.44
2023-04-15T08:54:36.696Z,22.20
2023-04-15T08:56:40.937Z,21.82
2023-04-15T08:58:45.995Z,21.63
2023-04-15T09:00:49.932Z,22.11
2023-04-15T09:02:55.238Z,22.61
2023-04-15T09:04:59.203Z,21.74
2023-04-15T09:07:03.049Z,21.13
2023-04-15T09:09:07.212Z,21.87
2023-04-15T09:11:11.433Z,22.06
2023-04-15T09:13:15.344Z,22.92
2023-04-15T09:15:19.380Z,22.27
2023-04-15T09:17:24.912Z,22.00
2023-04-15T09:19:29.324Z,22.01
2023-04-15T09:21:34.062Z,21.85
2023-04-15T09:23:40.086Z,21.78
2023-04-15T09:25:44.047Z,21.87
2023-04-15T09:28:02.342Z,21.32
2023-04-15T09:30:09.510Z,20.90
2023-04-15T09:32:16.238Z,21.72
2023-04-15T09:34:21.733Z,21.55
2023-04-15T09:36:26.453Z,21.11
2023-04-15T09:38:31.247Z,20.84
2023-04-15T09:40:38.446Z,22.17
2023-04-15T09:42:57.768Z,20.76
2023-04-15T09:45:15.836Z,21.46
2023-04-15T09:47:29.685Z,21.28
2023-04-15T09:49:33.614Z,21.61
2023-04-15T09:51:37.881Z,21.02
2023-04-15T09:53:41.795Z,21.59
2023-04-15T09:55:56.519Z,21.13
2023-04-15T09:58:00.427Z,21.37
2023-04-15T10:00:06.716Z,20.84
2023-04-15T10:02:13.546Z,20.76
2023-04-15T10:04:18.317Z,21.12
2023-04-15T10:06:27.122Z,21.31
2023-04-15T10:08:33.925Z,21.61
2023-04-15T10:10:38.090Z,21.54
2023-04-15T10:12:43.258Z,20.95
2023-04-15T10:14:53.628Z,20.83
2023-04-15T10:17:02.729Z,20.01
2023-04-15T10:19:08.878Z,20.27
2023-04-15T10:21:18.928Z,20.85
2023-04-15T10:23:24.662Z,20.79
2023-04-15T10:25:29.804Z,20.68
2023-04-15T10:27:34.090Z,20.18
2023-04-15T10:29:38.470Z,20.34
2023-04-15T10:31:42.989Z,20.31
2023-04-15T10:33:48.979Z,20.50
2023-04-15T10:35:54.829Z,19.60
2023-04-15T10:37:59.467Z,20.02
2023-04-15T10:40:31.899Z,19.93
2023-04-15T10:42:36.028Z,21.32
2023-04-15T10:44:44.821Z,20.30
2023-04-15T10:46:48.892Z,20.40
2023-04-15T10:48:53.980Z,20.64
2023-04-15T10:50:58.402Z,20.04
2023-04-15T10:53:05.932Z,20.02
2023-04-15T10:55:22.145Z,19.48
2023-04-15T10:57:34.450Z,19.82
2023-04-15T10:59:59.894Z,20.02
2023-04-15T11:02:06.219Z,20.09
2023-04-15T11:04:10.970Z,19.50
2023-04-15T11:06:15.218Z,19.75
2023-04-15T11:08:19.694Z,20.00
2023-04-15T11:10:26.424Z,19.61
2023-04-15T11:12:37.000Z,19.92
2023-04-15T11:14:43.484Z,19.93
2023-04-15T11:16:48.354Z,18.80
2023-04-15T11:18:56.161Z,18.94
2023-04-15T11:21:03.616Z,19.14
2023-04-15T11:23:15.370Z,19.77
2023-04-15T11:25:27.007Z,19.92
2023-04-15T11:27:31.301Z,19.61
2023-04-15T11:29:35.146Z,19.72
2023-04-15T11:31:39.160Z,20.16
2023-04-15T11:34:02.407Z,19.88
2023-04-15T11:36:06.724Z,19.48
2023-04-15T11:38:13.131Z,19.59
2023-04-15T11:40:22.603Z,19.63
2023-04-15T11:42:33.689Z,19.52
2023-04-15T11:44:46.953Z,19.55
2023-04-15T11:46:50.967Z,19.10
2023-04-15T11:48:55.130Z,19.19
2023-04-15T11:51:08.333Z,18.75
2023-04-15T11:53:13.175Z,18.25
2023-04-15T11:55:16.136Z,18.61
2023-04-15T11:57:18.880Z,18.53
2023-04-15T11:59:21.880Z,17.67
2023-04-15T12:01:40.016Z,17.52
2023-04-15T12:03:46.297Z,17.84
2023-04-15T12:06:05.276Z,17.34
2023-04-15T12:08:07.951Z,17.59
2023-04-15T12:10:10.882Z,17.38
2023-04-15T12:12:13.612Z,17.39
2023-04-15T12:14:16.479Z,16.86
2023-04-15T12:16:20.877Z,17.39
2023-04-15T12:18:25.917Z,16.87
2023-04-15T12:20:31.553Z,16.66
2023-04-15T12:22:38.834Z,16.54
2023-04-15T12:24:48.234Z,16.71
2023-04-15T12:26:58.253Z,16.60
2023-04-15T12:29:08.689Z,16.51
2023-04-15T12:31:13.585Z,16.62
2023-04-15T12:33:16.370Z,16.91
2023-04-15T12:35:21.799Z,16.76
2023-04-15T12:37:24.661Z,16.71
2023-04-15T12:39:31.336Z,16.63
2023-04-15T12:41:34.520Z,16.20
2023-04-15T12:43:37.220Z,16.28
2023-04-15T12:45:40.022Z,16.18
2023-04-15T12:47:43.260Z,16.18
2023-04-15T12:49:46.183Z,16.30
2023-04-15T12:51:57.032Z,16.00
2023-04-15T12:54:02.559Z,16.11
2023-04-15T12:56:06.731Z,16.46
2023-04-15T12:58:09.360Z,16.10
2023-04-15T13:00:13.648Z,16.42
2023-04-15T13:02:16.439Z,16.33
2023-04-15T13:04:22.254Z,16.21
2023-04-15T13:06:27.130Z,15.75
2023-04-15T13:08:29.929Z,15.80
2023-04-15T13:10:33.459Z,15.33
2023-04-15T13:12:38.963Z,15.67
2023-04-15T13:14:41.641Z,15.74
2023-04-15T13:16:44.400Z,16.09
2023-04-15T13:18:47.207Z,15.78
2023-04-15T13:20:51.413Z,15.65
2023-04-15T13:22:54.704Z,15.20
2023-04-15T13:24:57.671Z,15.22
2023-04-15T13:27:01.596Z,15.40
2023-04-15T13:29:04.787Z,15.44
2023-04-15T13:31:07.531Z,16.01
2023-04-15T13:33:10.203Z,15.97
2023-04-15T13:35:12.851Z,15.93
2023-04-15T13:37:15.774Z,16.30
2023-04-15T13:39:18.481Z,15.98
2023-04-15T13:41:21.554Z,16.39
2023-04-15T13:43:24.297Z,16.07
2023-04-15T13:45:27.433Z,15.78
2023-04-15T13:47:30.701Z,15.79
2023-04-15T13:49:33.548Z,15.99
2023-04-15T13:51:37.714Z,15.84
2023-04-15T13:53:40.909Z,15.69
2023-04-15T13:55:43.846Z,15.64
2023-04-15T13:57:47.067Z,15.54
2023-04-15T13:59:49.963Z,15.09
2023-04-15T14:01:53.357Z,15.47
2023-04-15T14:03:56.750Z,15.86
2023-04-15T14:05:59.799Z,15.49
2023-04-15T14:08:02.791Z,15.92
2023-04-15T14:10:06.166Z,15.84
2023-04-15T14:12:08.997Z,15.57
2023-04-15T14:14:11.682Z,15.77
2023-04-15T14:16:14.451Z,15.88
2023-04-15T14:18:17.205Z,16.03
2023-04-15T14:20:20.072Z,16.21
2023-04-15T14:22:22.756Z,16.21
2023-04-15T14:24:25.572Z,16.00
2023-04-15T14:26:28.405Z,16.07
2023-04-15T14:28:32.337Z,16.41
2023-04-15T14:30:35.273Z,16.20
2023-04-15T14:32:38.414Z,16.45
2023-04-15T14:34:41.181Z,16.76
2023-04-15T14:36:44.661Z,16.89
2023-04-15T14:38:48.651Z,16.90
2023-04-15T14:40:51.628Z,16.78
2023-04-15T14:42:54.756Z,16.85
2023-04-15T14:44:57.519Z,17.35
2023-04-15T14:47:00.955Z,17.06
2023-04-15T14:49:04.049Z,17.02
2023-04-15T14:51:07.310Z,17.37
2023-04-15T14:53:09.968Z,17.61
2023-04-15T14:55:13.311Z,17.88
2023-04-15T14:57:16.429Z,17.71
2023-04-15T14:59:19.197Z,17.86
2023-04-15T15:01:22.154Z,18.24
2023-04-15T15:03:25.186Z,18.16
2023-04-15T15:05:28.404Z,18.32
2023-04-15T15:07:31.392Z,18.60
2023-04-15T15:09:35.021Z,18.40
2023-04-15T15:11:37.976Z,18.45
2023-04-15T15:13:40.955Z,18.81
2023-04-15T15:15:44.184Z,18.87
2023-04-15T15:17:47.477Z,19.52
2023-04-15T15:19:50.307Z,19.51
2023-04-15T15:21:53.089Z,19.81
2023-04-15T15:23:55.795Z,20.18
2023-04-15T15:25:59.104Z,20.26
2023-04-15T15:28:01.822Z,20.48
2023-04-15T15:30:04.880Z,20.47
2023-04-15T15:32:08.234Z,21.34
2023-04-15T15:34:10.980Z,21.12
2023-04-15T15:36:13.719Z,21.43
2023-04-15T15:38:16.692Z,21.42
2023-04-15T15:40:19.580Z,21.57
2023-04-15T15:42:23.788Z,21.58
2023-04-15T15:44:26.750Z,21.76
2023-04-15T15:46:31.649Z,22.39
2023-04-15T15:48:34.519Z,22.09
2023-04-15T15:50:37.726Z,22.15
2023-04-15T15:52:40.940Z,22.47
2023-04-15T15:54:43.644Z,22.46
2023-04-15T15:56:46.470Z,22.83
2023-04-15T15:58:49.445Z,22.90
2023-04-15T16:00:52.233Z,23.14
2023-04-15T16:03:06.895Z,23.12
2023-04-15T16:05:11.975Z,23.56
2023-04-15T16:07:16.047Z,23.66
2023-04-15T16:09:19.138Z,23.30
2023-04-15T16:11:21.941Z,23.44
2023-04-15T16:13:24.618Z,23.66
2023-04-15T16:15:27.496Z,23.32
2023-04-15T16:17:30.345Z,23.92
2023-04-15T16:19:33.072Z,24.01
2023-04-15T16:21:35.868Z,23.63
2023-04-15T16:23:38.672Z,23.26
2023-04-15T16:25:44.940Z,23.69
2023-04-15T16:28:00.851Z,23.89
2023-04-15T16:30:09.250Z,24.07
2023-04-15T16:32:12.095Z,24.06
2023-04-15T16:34:16.100Z,23.96
2023-04-15T16:36:18.901Z,24.17
2023-04-15T16:38:21.765Z,24.19
2023-04-15T16:40:25.169Z,24.40
2023-04-15T16:42:27.883Z,24.43
2023-04-15T16:44:30.981Z,23.99
2023-04-15T16:46:33.789Z,24.53
2023-04-15T16:48:36.551Z,24.13
2023-04-15T16:50:39.561Z,24.60
2023-04-15T16:52:42.362Z,24.88
2023-04-15T16:54:45.097Z,24.75
2023-04-15T16:56:47.880Z,24.88
2023-04-15T16:58:51.102Z,24.97
2023-04-15T17:00:53.966Z,24.78
2023-04-15T17:02:56.963Z,24.39
2023-04-15T17:04:59.958Z,24.95
2023-04-15T17:07:02.640Z,25.29
2023-04-15T17:09:05.611Z,24.88
2023-04-15T17:11:08.507Z,25.44
2023-04-15T17:13:11.264Z,25.48
2023-04-15T17:15:14.065Z,25.43
2023-04-15T17:17:23.550Z,25.90
2023-04-15T17:19:27.683Z,25.23
2023-04-15T17:21:42.785Z,25.56
2023-04-15T17:23:54.630Z,25.68
2023-04-15T17:25:57.317Z,25.64
2023-04-15T17:28:02.044Z,25.64
2023-04-15T17:30:08.587Z,25.64
2023-04-15T17:32:34.899Z,25.18
2023-04-15T17:34:57.700Z,26.24
2023-04-15T17:37:20.244Z,25.44
2023-04-15T17:39:43.280Z,25.59
2023-04-15T17:42:05.821Z,25.76
2023-04-15T17:44:28.362Z,26.13
2023-04-15T17:46:51.160Z,25.75
2023-04-15T17:49:13.844Z,26.27
2023-04-15T17:51:36.330Z,26.13
2023-04-15T17:53:58.820Z,26.42
2023-04-15T17:56:21.613Z,26.04
2023-04-15T17:58:44.212Z,26.06
2023-04-15T18:01:06.867Z,26.45
2023-04-15T18:03:29.634Z,26.12
2023-04-15T18:05:53.356Z,26.14
2023-04-15T18:08:17.112Z,26.43
2023-04-15T18:10:40.156Z,26.26
2023-04-15T18:13:03.651Z,26.05
2023-04-15T18:15:26.687Z,26.09
2023-04-15T18:17:50.962Z,25.84
2023-04-15T18:19:56.020Z,26.60
2023-04-15T18:22:00.968Z,26.18
2023-04-15T18:24:04.438Z,26.10
2023-04-15T18:26:07.478Z,25.65
2023-04-15T18:28:11.216Z,25.93
2023-04-15T18:30:14.217Z,26.14
2023-04-15T18:32:17.356Z,25.96
2023-04-15T18:34:20.305Z,25.78
2023-04-15T18:36:24.465Z,25.69
2023-04-15T18:38:27.186Z,25.42
2023-04-15T18:40:29.880Z,25.61
2023-04-15T18:42:32.660Z,25.70
2023-04-15T18:44:35.531Z,25.66
2023-04-15T18:46:38.290Z,25.68
2023-04-15T18:48:43.336Z,26.00
2023-04-15T18:50:46.187Z,26.09
2023-04-15T18:52:51.390Z,25.85
2023-04-15T18:54:54.413Z,26.05
2023-04-15T18:56:57.194Z,25.64
2023-04-15T18:59:25.005Z,26.03
2023-04-15T19:01:23.798Z,26.15
2023-04-15T19:03:26.581Z,26.25
2023-04-15T19:05:30.871Z,25.90
2023-04-15T19:07:33.641Z,26.02
2023-04-15T19:09:36.548Z,26.35
2023-04-15T19:11:39.338Z,25.94
2023-04-15T19:13:42.097Z,26.62
2023-04-15T19:15:44.902Z,26.31
2023-04-15T19:17:47.807Z,26.60
2023-04-15T19:19:50.947Z,26.51
2023-04-15T19:21:54.050Z,27.14
2023-04-15T19:23:57.922Z,27.00
2023-04-15T19:26:00.570Z,26.83
2023-04-15T19:28:03.461Z,27.07
2023-04-15T19:30:08.731Z,26.93
2023-04-15T19:32:11.502Z,27.27
2023-04-15T19:34:14.783Z,27.28
2023-04-15T19:36:18.575Z,26.56
2023-04-15T19:38:21.325Z,26.73
2023-04-15T19:40:24.385Z,26.98
2023-04-15T19:42:27.166Z,26.92
2023-04-15T19:44:29.980Z,26.79
2023-04-15T19:46:33.123Z,27.00
2023-04-15T19:48:37.525Z,27.42
2023-04-15T19:50:40.320Z,27.09
2023-04-15T19:52:43.033Z,27.62
2023-04-15T19:54:45.869Z,27.44
2023-04-15T19:56:48.837Z,27.31
2023-04-15T19:58:53.036Z,27.45
2023-04-15T20:00:57.017Z,27.87
2023-04-15T20:03:00.326Z,27.44
2023-04-15T20:05:03.400Z,27.20
2023-04-15T20:07:06.633Z,27.39
2023-04-15T20:09:11.295Z,27.55
2023-04-15T20:11:15.142Z,27.29
2023-04-15T20:13:18.059Z,28.03
2023-04-15T20:15:23.981Z,27.52
2023-04-15T20:17:27.314Z,27.67
2023-04-15T20:19:30.128Z,28.20
2023-04-15T20:21:32.967Z,27.86
2023-04-15T20:23:36.246Z,28.21
2023-04-15T20:25:38.989Z,28.32
2023-04-15T20:27:41.669Z,28.09
2023-04-15T20:29:44.465Z,28.21
2023-04-15T20:31:47.617Z,27.87
2023-04-15T20:33:50.564Z,28.25
2023-04-15T20:35:54.212Z,28.60
2023-04-15T20:37:57.173Z,28.25
2023-04-15T20:40:00.898Z,28.37
2023-04-15T20:42:03.844Z,28.11
2023-04-15T20:44:06.640Z,28.31
2023-04-15T20:46:20.520Z,27.91
2023-04-15T20:48:24.233Z,28.77
2023-04-15T20:50:27.297Z,28.10
2023-04-15T20:52:30.441Z,28.16
2023-04-15T20:54:33.620Z,28.89
2023-04-15T20:56:36.653Z,28.55
2023-04-15T20:58:39.580Z,29.01
2023-04-15T21:00:42.791Z,29.01
2023-04-15T21:02:46.202Z,29.24
2023-04-15T21:04:48.982Z,29.02
2023-04-15T21:06:52.473Z,29.05
2023-04-15T21:08:55.246Z,29.07
2023-04-15T21:10:58.143Z,29.12
2023-04-15T21:13:03.937Z,29.16
2023-04-15T21:15:07.786Z,29.13
2023-04-15T21:17:11.590Z,30.01
2023-04-15T21:19:14.538Z,30.24
2023-04-15T21:21:17.232Z,30.44
2023-04-15T21:23:19.954Z,30.62
2023-04-15T21:25:22.734Z,30.81
2023-04-15T21:27:26.300Z,30.44
2023-04-15T21:29:29.225Z,30.86
2023-04-15T21:31:31.950Z,30.66
2023-04-15T21:33:34.723Z,30.70
2023-04-15T21:35:37.571Z,30.86
2023-04-15T21:37:40.403Z,31.05
2023-04-15T21:39:43.044Z,30.60
2023-04-15T21:41:45.853Z,30.84
2023-04-15T21:43:48.690Z,30.26
2023-04-15T21:46:21.500Z,30.63
2023-04-15T21:48:15.097Z,31.04
2023-04-15T21:50:17.849Z,31.86
2023-04-15T21:52:20.683Z,31.56
2023-04-15T21:54:23.492Z,32.03
2023-04-15T21:56:27.031Z,32.62
2023-04-15T21:58:30.049Z,32.73
2023-04-15T22:00:32.920Z,32.35
2023-04-15T22:02:37.899Z,32.85
2023-04-15T22:04:40.895Z,33.84
2023-04-15T22:06:43.646Z,34.20
2023-04-15T22:08:56.286Z,34.62
2023-04-15T22:11:00.169Z,36.05
2023-04-15T22:13:07.228Z,36.41
2023-04-15T22:15:10.230Z,36.69
2023-04-15T22:17:12.979Z,37.19
2023-04-15T22:19:15.663Z,37.63
2023-04-15T22:21:18.372Z,37.39
2023-04-15T22:23:21.288Z,38.06
2023-04-15T22:25:24.407Z,38.53
2023-04-15T22:27:27.139Z,38.90
2023-04-15T22:29:30.323Z,38.42
2023-04-15T22:31:33.069Z,37.85
2023-04-15T22:33:35.987Z,38.33
2023-04-15T22:35:39.078Z,38.08
2023-04-15T22:37:42.239Z,38.41
2023-04-15T22:39:45.079Z,38.32
2023-04-15T22:41:47.884Z,37.36
2023-04-15T22:43:50.628Z,36.93
2023-04-15T22:45:55.230Z,37.04
2023-04-15T22:47:58.385Z,36.44
2023-04-15T22:50:01.134Z,35.96
2023-04-15T22:52:04.658Z,35.61
2023-04-15T22:54:07.395Z,34.64
2023-04-15T22:56:10.130Z,34.57
2023-04-15T22:58:13.119Z,33.40
2023-04-15T23:00:16.093Z,33.49
2023-04-15T23:02:19.115Z,33.48
2023-04-15T23:04:23.185Z,32.95
2023-04-15T23:06:30.032Z,32.62
2023-04-15T23:08:32.736Z,32.39
2023-04-15T23:10:36.580Z,32.19
2023-04-15T23:12:39.371Z,32.13
2023-04-15T23:14:42.177Z,32.24
2023-04-15T23:16:45.754Z,31.70
2023-04-15T23:18:48.596Z,31.26
2023-04-15T23:20:51.426Z,31.45
2023-04-15T23:22:54.137Z,31.38
2023-04-15T23:24:56.927Z,31.24
2023-04-15T23:26:59.781Z,31.35
2023-04-15T23:29:02.473Z,32.32
2023-04-15T23:31:05.366Z,32.65
2023-04-15T23:33:08.793Z,32.95
2023-04-15T23:35:11.474Z,34.25
2023-04-15T23:37:18.045Z,34.38
2023-04-15T23:39:21.066Z,34.22
2023-04-15T23:41:23.855Z,35.15
2023-04-15T23:43:26.722Z,35.73
2023-04-15T23:45:29.474Z,35.24
2023-04-15T23:47:32.202Z,36.00
2023-04-15T23:49:36.779Z,36.34
2023-04-15T23:51:39.537Z,35.32
2023-04-15T23:53:42.948Z,35.00
2023-04-15T23:55:45.773Z,34.86
2023-04-15T23:57:49.743Z,35.19
2023-04-15T23:59:53.553Z,35.65
